KTTD/TTD METAR and TAF weather

Enter ICAO airport designator
Station Type Date Time Source
KTTD METAR 2019/02/16 16:53 UTC NOAA

KTTD 161653Z 08004KT 10SM FEW007 OVC022 03/02 A2987 RMK AO2 SLP115 T00280017


Station Type Date Time Source
KTTD Decoded METAR 2019/02/16 16:53 UTC NOAA

PORTLAND-TROUTDALE AIRPORT, OR, United States (KTTD) 45-33N 122-25W 14M
Feb 16, 2019 - 11:53 AM EST / 2019.02.16 1653 UTC
Wind: from the E (080 degrees) at 5 MPH (4 KT):0
Visibility: 10 mile(s):0
Sky conditions: overcast
Temperature: 37.0 F (2.8 C)
Dew Point: 35.1 F (1.7 C)
Relative Humidity: 92%
Pressure (altimeter): 29.87 in. Hg (1011 hPa)
ob: KTTD 161653Z 08004KT 10SM FEW007 OVC022 03/02 A2987 RMK AO2 SLP115 T00280017
cycle: 17

Station Type Date Time Source
KTTD TAF 2019/02/16 15:58 UTC NOAA

TAF
AMD KTTD 161456Z 1615/1712 09003KT 6SM -SHRA BKN005 OVC015
FM161700 15004KT P6SM -SHRA SCT006 OVC015
FM161900 20007KT P6SM -SHRA SCT015 OVC025
FM170400 23006KT P6SM VCSH OVC050
FM170900 VRB03KT P6SM BKN050


Example: see airport list